Time;durP1;ratioP1;P1;durP2;ratioP2;P2;SDS_P1;SDS_P2;PMS_P1;PMS_P2;Temp;Humidity;BMP_temperature;BMP_pressure;BME280_temperature;BME280_humidity;BME280_pressure;Samples;Min_cycle;Max_cycle;Signal;HPM_P1;HPM_P2
2023/07/07 00:01:18;;;;;;;3.85;2.30;;;15.70;92.70;;;15.57;76.02;97477.25;5030106;28;20458;-36
2023/07/07 00:03:44;;;;;;;2.90;1.90;;;15.70;93.20;;;15.51;77.49;97476.75;5034821;28;20021;-36
2023/07/07 00:06:09;;;;;;;6.03;2.10;;;15.60;93.50;;;15.48;75.73;97472.47;5031838;28;20051;-36
2023/07/07 00:08:35;;;;;;;3.55;2.13;;;15.60;93.20;;;15.46;74.08;97477.00;5035397;28;20127;-36
2023/07/07 00:11:01;;;;;;;3.75;1.95;;;15.60;92.90;;;15.46;72.40;97480.50;5036084;28;20036;-36
2023/07/07 00:13:27;;;;;;;3.25;1.98;;;15.60;92.50;;;15.45;73.24;97476.16;5027013;28;20029;-36
2023/07/07 00:16:02;;;;;;;4.60;2.30;;;15.60;92.70;;;15.42;72.54;97478.97;5024861;28;20314;-36
2023/07/07 00:18:29;;;;;;;2.88;1.80;;;15.60;92.60;;;15.32;72.27;97456.50;5031157;28;20028;-36
2023/07/07 00:20:59;;;;;;;2.30;1.75;;;15.50;92.50;;;15.39;75.22;97472.97;5033852;28;20386;-36
2023/07/07 00:23:26;;;;;;;3.85;2.10;;;15.50;93.20;;;15.36;74.75;97474.00;5031505;28;20068;-36
2023/07/07 00:26:09;;;;;;;3.72;2.28;;;15.50;93.10;;;15.33;77.79;97476.81;5028669;28;20513;-36
2023/07/07 00:28:35;;;;;;;2.95;2.20;;;15.40;93.80;;;15.29;80.43;97472.63;5031154;28;20030;-37
2023/07/07 00:31:02;;;;;;;3.63;2.10;;;15.40;94.40;;;15.14;79.26;97458.38;5033486;28;20033;-36
2023/07/07 00:33:28;;;;;;;3.25;2.10;;;15.40;94.20;;;15.25;79.20;97479.91;5024721;28;20064;-36
2023/07/07 00:35:55;;;;;;;3.85;2.30;;;15.40;94.20;;;15.11;79.36;97457.69;5019677;28;20029;-36
2023/07/07 00:38:20;;;;;;;2.80;1.98;;;15.30;94.30;;;15.18;78.74;97475.00;5026701;28;20024;-36
2023/07/07 00:40:46;;;;;;;4.82;2.28;;;15.30;94.20;;;15.13;79.66;97472.59;5029328;28;20437;-36
2023/07/07 00:43:14;;;;;;;3.03;1.98;;;15.30;94.40;;;15.08;77.82;97461.38;5028455;28;20056;-36
2023/07/07 00:45:40;;;;;;;3.00;2.08;;;15.20;94.00;;;15.07;77.26;97471.16;5026440;28;20087;-36
2023/07/07 00:48:17;;;;;;;3.20;2.05;;;15.20;93.90;;;15.05;76.72;97469.50;5030815;28;20029;-36
2023/07/07 00:51:04;;;;;;;2.50;2.30;;;15.20;93.80;;;15.01;79.18;97468.81;5017669;28;20029;-36
2023/07/07 00:53:30;;;;;;;4.65;2.40;;;15.10;94.30;;;14.96;81.56;97465.53;5013880;28;20032;-36
2023/07/07 00:56:01;;;;;;;4.22;2.13;;;15.10;94.90;;;14.92;82.64;97471.94;5024547;28;20512;-36
2023/07/07 00:58:28;;;;;;;3.88;2.28;;;15.00;95.10;;;14.87;81.89;97471.34;5010968;28;20029;-36
2023/07/07 01:01:05;;;;;;;3.17;2.22;;;15.00;95.00;;;14.75;81.57;97462.25;5023229;28;20539;-36
2023/07/07 01:03:39;;;;;;;3.58;2.10;;;15.00;95.00;;;14.83;80.20;97481.25;5019920;28;20483;-36
2023/07/07 01:06:10;;;;;;;2.90;2.00;;;15.00;94.80;;;14.84;81.20;97484.75;5001842;28;20033;-36
2023/07/07 01:08:39;;;;;;;3.83;2.10;;;15.00;95.00;;;14.72;83.56;97470.34;5005836;28;20037;-37
2023/07/07 01:11:05;;;;;;;4.25;2.50;;;14.90;95.50;;;14.75;85.06;97480.81;5021817;28;20044;-38
2023/07/07 01:13:31;;;;;;;4.85;2.40;;;14.90;95.80;;;14.70;85.15;97496.97;5020616;28;20029;-37
2023/07/07 01:16:07;;;;;;;3.75;2.30;;;14.80;95.90;;;14.66;84.05;97492.78;5018710;28;20037;-37
2023/07/07 01:19:15;;;;;;;3.95;2.20;;;14.80;95.70;;;14.64;82.44;97492.00;5022558;28;20032;-37
2023/07/07 01:22:15;;;;;;;3.70;2.17;;;14.80;95.40;;;14.60;82.85;97493.06;5012511;28;20139;-37
2023/07/07 01:25:10;;;;;;;4.95;1.98;;;14.80;95.60;;;14.60;82.22;97497.53;5018138;28;20055;-37
2023/07/07 01:28:32;;;;;;;5.35;2.35;;;14.70;95.40;;;14.59;82.52;97499.34;5000291;28;20087;-37
2023/07/07 01:31:14;;;;;;;3.75;2.33;;;14.70;95.50;;;14.54;85.89;97490.72;5021183;28;20045;-37
2023/07/07 01:33:41;;;;;;;3.88;2.63;;;14.70;96.30;;;14.49;87.40;97488.28;5006394;28;20043;-37
2023/07/07 01:36:07;;;;;;;3.20;2.30;;;14.60;96.60;;;14.44;88.56;97486.81;5001478;28;20509;-36
2023/07/07 01:38:43;;;;;;;4.43;2.50;;;14.60;96.90;;;14.42;87.52;97488.69;5020088;28;20044;-36
2023/07/07 01:41:37;;;;;;;3.65;2.13;;;14.60;96.70;;;14.40;85.89;97485.25;5017343;28;20687;-36
2023/07/07 01:44:40;;;;;;;3.92;2.30;;;14.60;96.50;;;14.38;87.38;97487.13;5019824;28;22031;-36
2023/07/07 01:47:20;;;;;;;3.47;2.22;;;14.50;96.70;;;14.32;88.32;97485.66;4999083;28;20049;-36
2023/07/07 01:49:56;;;;;;;4.50;2.60;;;14.50;97.00;;;14.28;87.19;97495.56;5003381;28;20646;-36
2023/07/07 01:52:45;;;;;;;4.32;2.30;;;14.40;96.80;;;14.27;89.01;97493.84;5007460;28;20025;-36
2023/07/07 01:55:19;;;;;;;4.32;2.38;;;14.40;97.20;;;14.24;90.49;97487.81;5005276;28;20044;-36
2023/07/07 01:57:50;;;;;;;3.70;2.45;;;14.40;97.60;;;14.23;90.97;97492.28;5016711;28;20511;-36
2023/07/07 02:00:17;;;;;;;4.35;2.53;;;14.40;97.70;;;14.22;94.08;97489.69;5007074;28;20067;-36
2023/07/07 02:02:43;;;;;;;3.80;2.53;;;14.40;98.40;;;14.18;96.33;97488.16;5023151;28;20471;-36
2023/07/07 02:05:12;;;;;;;4.25;2.47;;;14.30;98.90;;;14.14;97.45;97484.78;5011388;28;20033;-36
2023/07/07 02:07:38;;;;;;;3.70;2.40;;;14.30;99.20;;;14.11;97.68;97479.63;5020532;28;20026;-36
2023/07/07 02:10:05;;;;;;;4.50;2.65;;;14.30;99.30;;;14.09;98.61;97478.84;5000114;28;20045;-36
2023/07/07 02:12:30;;;;;;;3.03;2.30;;;14.30;99.60;;;14.08;99.77;97477.97;5020225;28;20044;-36
2023/07/07 02:14:56;;;;;;;5.85;2.55;;;14.20;99.90;;;14.05;100.00;97477.28;5011779;28;20029;-36
2023/07/07 02:17:24;;;;;;;4.97;3.13;;;14.20;99.90;;;14.03;100.00;97482.69;5018125;28;20487;-36
2023/07/07 02:19:50;;;;;;;4.72;3.03;;;14.20;99.90;;;14.00;100.00;97480.16;5021274;28;20033;-36
2023/07/07 02:22:16;;;;;;;4.07;2.80;;;14.20;99.90;;;13.90;100.00;97466.50;5021228;28;22161;-36
2023/07/07 02:24:42;;;;;;;3.80;2.47;;;14.10;99.90;;;13.94;100.00;97481.34;5021499;28;20040;-36
2023/07/07 02:27:10;;;;;;;4.20;2.60;;;14.10;99.90;;;13.91;100.00;97480.63;5024722;28;20543;-36
2023/07/07 02:29:37;;;;;;;3.03;2.25;;;14.10;99.90;;;13.80;100.00;97470.53;5006932;28;20024;-36
2023/07/07 02:32:04;;;;;;;6.00;2.83;;;14.00;99.90;;;13.87;100.00;97482.56;5018080;28;20037;-36
2023/07/07 02:34:29;;;;;;;3.15;2.40;;;14.10;99.90;;;13.83;100.00;97478.31;5022427;28;20556;-36
2023/07/07 02:36:55;;;;;;;3.42;2.58;;;14.00;99.90;;;13.81;100.00;97477.56;5023264;28;20029;-36
2023/07/07 02:39:21;;;;;;;4.30;2.38;;;14.00;99.90;;;13.80;100.00;97472.31;5022496;28;20044;-36
2023/07/07 02:41:47;;;;;;;8.30;2.78;;;14.00;99.90;;;13.81;100.00;97480.19;5023507;28;20797;-36
2023/07/07 02:44:13;;;;;;;7.93;2.80;;;14.00;99.90;;;13.76;100.00;97474.25;5012502;28;20026;-36
2023/07/07 02:46:39;;;;;;;3.53;2.28;;;14.00;99.90;;;13.73;100.00;97466.47;5022153;28;20364;-36
2023/07/07 02:49:05;;;;;;;3.83;2.55;;;13.90;99.90;;;13.73;100.00;97471.78;5022660;28;20048;-36
2023/07/07 02:51:30;;;;;;;8.57;3.50;;;13.90;99.90;;;13.71;100.00;97468.31;5022449;28;20072;-36
2023/07/07 02:53:57;;;;;;;4.80;2.90;;;13.90;99.90;;;13.68;100.00;97472.00;5023396;28;20099;-36
2023/07/07 02:56:23;;;;;;;6.80;3.38;;;13.90;99.90;;;13.67;100.00;97477.34;5023124;28;20041;-36
2023/07/07 02:58:48;;;;;;;6.95;3.22;;;13.80;99.90;;;13.66;100.00;97473.00;5025002;28;20064;-36
2023/07/07 03:01:17;;;;;;;4.18;2.83;;;13.80;99.90;;;13.66;100.00;97475.66;5017839;28;20124;-36
2023/07/07 03:03:48;;;;;;;4.00;2.58;;;13.80;99.90;;;13.64;100.00;97469.53;5024889;28;20515;-36
2023/07/07 03:06:20;;;;;;;4.55;2.80;;;13.80;99.90;;;13.62;100.00;97471.41;5023390;28;20189;-36
2023/07/07 03:08:47;;;;;;;3.88;2.33;;;13.80;99.90;;;13.58;100.00;97468.06;5030687;28;20223;-36
2023/07/07 03:11:16;;;;;;;3.45;2.50;;;13.80;99.90;;;13.54;100.00;97472.66;5020814;28;20040;-36
2023/07/07 03:13:42;;;;;;;7.03;2.67;;;13.80;99.90;;;13.54;100.00;97471.78;5023007;28;20025;-36
2023/07/07 03:16:20;;;;;;;4.18;2.60;;;13.70;99.90;;;13.50;100.00;97479.03;5019266;28;20035;-36
2023/07/07 03:18:47;;;;;;;4.40;2.90;;;13.70;99.90;;;13.51;100.00;97485.19;5020105;28;20080;-36
2023/07/07 03:21:16;;;;;;;3.42;2.67;;;13.70;99.90;;;13.47;100.00;97481.81;5021613;28;20209;-36
2023/07/07 03:23:42;;;;;;;4.53;2.60;;;13.70;99.90;;;13.45;100.00;97491.63;5020478;28;20372;-36
2023/07/07 03:26:17;;;;;;;6.78;3.15;;;13.60;99.90;;;13.43;100.00;97496.16;5023442;28;20035;-36
2023/07/07 03:28:43;;;;;;;5.75;2.75;;;13.60;99.90;;;13.38;100.00;97497.28;5030649;28;20028;-36
2023/07/07 03:31:22;;;;;;;3.50;2.72;;;13.60;99.90;;;13.38;100.00;97497.28;4994003;28;20047;-36
2023/07/07 03:33:50;;;;;;;4.40;2.67;;;13.60;99.90;;;13.38;100.00;97492.84;5020973;28;20521;-36
2023/07/07 03:36:19;;;;;;;4.43;2.67;;;13.60;99.90;;;13.39;100.00;97502.53;5015908;28;20037;-36
2023/07/07 03:38:44;;;;;;;4.22;2.88;;;13.60;99.90;;;13.36;100.00;97502.66;5021851;28;20036;-36
2023/07/07 03:41:15;;;;;;;3.92;2.83;;;13.60;99.90;;;13.36;100.00;97507.97;5021775;28;21082;-36
2023/07/07 03:43:45;;;;;;;5.00;3.08;;;13.60;99.90;;;13.37;100.00;97507.03;5014056;28;20060;-36
2023/07/07 03:46:16;;;;;;;3.83;2.83;;;13.60;99.90;;;13.26;100.00;97485.44;5009195;28;20045;-36
2023/07/07 03:48:44;;;;;;;4.03;2.77;;;13.50;99.90;;;13.39;100.00;97509.59;5012462;28;20037;-36
2023/07/07 03:51:10;;;;;;;8.02;3.28;;;13.60;99.90;;;13.32;100.00;97499.28;5022053;28;20368;-36
2023/07/07 03:53:36;;;;;;;4.25;3.03;;;13.60;99.90;;;13.44;100.00;97524.38;5008579;28;20041;-36
2023/07/07 03:56:02;;;;;;;4.72;2.95;;;13.60;99.90;;;13.39;100.00;97502.53;5010569;28;20137;-36
2023/07/07 03:58:28;;;;;;;3.60;2.60;;;13.60;99.90;;;13.52;100.00;97522.19;5014150;28;20033;-36
2023/07/07 04:01:02;;;;;;;5.95;3.05;;;13.70;99.90;;;13.55;100.00;97526.50;5016665;28;20372;-36
2023/07/07 04:03:28;;;;;;;5.35;3.05;;;13.70;99.90;;;13.59;100.00;97519.28;5030061;28;20029;-36
2023/07/07 04:05:55;;;;;;;4.78;3.00;;;13.70;99.90;;;13.63;100.00;97529.66;5025318;28;20146;-36
2023/07/07 04:08:25;;;;;;;6.25;3.22;;;13.80;99.90;;;13.67;100.00;97525.06;5021705;28;20021;-36
2023/07/07 04:11:03;;;;;;;5.07;2.80;;;13.80;99.90;;;13.71;100.00;97524.84;5021434;28;20025;-36
2023/07/07 04:13:33;;;;;;;6.57;3.10;;;13.90;99.90;;;13.77;100.00;97525.50;5024777;28;20425;-36
2023/07/07 04:16:07;;;;;;;5.45;2.97;;;14.00;99.90;;;13.81;100.00;97517.31;5023362;28;20030;-36
2023/07/07 04:18:34;;;;;;;4.35;2.85;;;14.00;99.90;;;13.91;100.00;97523.91;5021428;28;20029;-36
2023/07/07 04:21:02;;;;;;;5.75;3.40;;;14.10;99.90;;;13.98;100.00;97521.81;5029192;28;20463;-36
2023/07/07 04:23:28;;;;;;;4.13;2.67;;;14.20;99.90;;;14.05;100.00;97520.56;5019530;28;20138;-36
2023/07/07 04:25:55;;;;;;;3.92;2.88;;;14.20;99.90;;;14.13;100.00;97520.19;5017366;28;20159;-39
2023/07/07 04:28:21;;;;;;;3.65;2.53;;;14.30;99.90;;;14.19;100.00;97525.19;5026647;28;20029;-36
2023/07/07 04:30:52;;;;;;;3.85;2.80;;;14.40;99.90;;;14.25;100.00;97529.34;5024664;28;20041;-36
2023/07/07 04:33:17;;;;;;;5.10;2.90;;;14.40;99.90;;;14.31;100.00;97529.03;5030887;28;20103;-36
2023/07/07 04:35:43;;;;;;;4.82;2.78;;;14.50;99.90;;;14.38;100.00;97525.13;5022387;28;20942;-37
2023/07/07 04:38:10;;;;;;;4.63;2.63;;;14.50;99.90;;;14.44;100.00;97529.28;5029958;28;20033;-37
2023/07/07 04:40:35;;;;;;;4.22;2.80;;;14.60;99.90;;;14.52;100.00;97535.91;5030782;28;20429;-37
2023/07/07 04:43:01;;;;;;;3.35;2.55;;;14.70;99.90;;;14.62;100.00;97541.63;5034011;28;20021;-37
2023/07/07 04:45:27;;;;;;;4.88;2.90;;;14.80;99.90;;;14.67;100.00;97523.69;5033431;28;20028;-37
2023/07/07 04:47:52;;;;;;;5.25;3.13;;;14.90;99.90;;;14.83;100.00;97538.81;5032238;28;20032;-37
2023/07/07 04:50:19;;;;;;;4.18;2.63;;;15.00;99.90;;;14.91;100.00;97535.75;5033776;28;20441;-37
2023/07/07 04:52:44;;;;;;;4.85;2.80;;;15.10;99.90;;;15.02;100.00;97544.91;5028056;28;20087;-37
2023/07/07 04:55:10;;;;;;;6.07;2.85;;;15.20;99.90;;;15.08;100.00;97536.59;5028588;28;20567;-37
2023/07/07 04:57:37;;;;;;;8.48;3.10;;;15.30;99.90;;;15.21;100.00;97546.56;5034183;28;20502;-37
2023/07/07 05:00:04;;;;;;;5.03;2.92;;;15.40;99.90;;;15.22;99.02;97530.53;5033918;28;20440;-36
2023/07/07 05:02:29;;;;;;;5.47;3.20;;;15.40;99.90;;;15.31;97.80;97530.97;5029137;28;20044;-36
2023/07/07 05:04:55;;;;;;;4.70;2.78;;;15.50;99.90;;;15.42;96.98;97544.56;5026382;28;20033;-36
2023/07/07 05:07:21;;;;;;;4.55;3.08;;;15.60;99.90;;;15.48;96.35;97538.91;5018198;28;20037;-36
2023/07/07 05:09:46;;;;;;;5.25;2.97;;;15.60;99.90;;;15.55;95.50;97542.94;5024571;28;20021;-36
2023/07/07 05:12:13;;;;;;;5.68;3.47;;;15.70;99.90;;;15.64;95.32;97541.59;5030027;28;20711;-36
2023/07/07 05:14:39;;;;;;;4.93;3.17;;;15.80;99.90;;;15.72;94.39;97538.50;5028108;28;20036;-36
2023/07/07 05:17:04;;;;;;;5.85;3.00;;;15.90;99.90;;;15.81;93.00;97548.66;5023994;28;20041;-36
2023/07/07 05:19:30;;;;;;;6.35;3.00;;;15.90;99.90;;;15.93;92.28;97541.78;5029191;28;20025;-36
2023/07/07 05:21:56;;;;;;;6.05;3.60;;;16.00;99.90;;;16.08;91.45;97540.94;5021163;28;20041;-36
2023/07/07 05:24:21;;;;;;;6.00;2.83;;;16.20;99.90;;;16.44;88.56;97545.09;5026539;28;20425;-36
2023/07/07 05:26:47;;;;;;;3.80;2.78;;;16.40;99.90;;;17.10;83.28;97549.16;5028441;28;20152;-36
2023/07/07 05:29:13;;;;;;;4.82;3.20;;;16.70;99.90;;;17.68;78.05;97547.34;5028707;28;20535;-36
2023/07/07 05:31:40;;;;;;;6.97;3.45;;;17.10;99.90;;;18.27;73.98;97551.63;5028087;28;20049;-36
2023/07/07 05:34:06;;;;;;;6.47;3.45;;;17.60;99.90;;;19.02;67.92;97548.41;5023831;28;20258;-36
2023/07/07 05:36:32;;;;;;;8.00;3.78;;;18.00;99.90;;;19.47;62.90;97548.84;5028977;28;20028;-36
2023/07/07 05:38:57;;;;;;;6.07;3.20;;;18.40;99.90;;;19.54;62.54;97552.81;5023971;28;20127;-36
2023/07/07 05:41:23;;;;;;;7.47;3.10;;;18.60;99.50;;;19.32;62.60;97540.06;5027798;28;20048;-36
2023/07/07 05:43:49;;;;;;;5.07;3.13;;;18.70;99.10;;;19.18;62.52;97554.38;5027333;28;20096;-36
2023/07/07 05:46:16;;;;;;;5.60;3.25;;;18.70;98.60;;;18.96;64.29;97555.03;5027484;28;20021;-36
2023/07/07 05:48:42;;;;;;;6.05;3.30;;;18.60;98.70;;;18.80;66.10;97555.19;5018573;28;20698;-36
2023/07/07 05:51:12;;;;;;;6.53;3.30;;;18.60;98.90;;;18.67;67.07;97549.81;5024488;28;20028;-36
2023/07/07 05:53:40;;;;;;;5.40;3.28;;;18.60;98.90;;;18.60;65.85;97555.69;5020787;28;20025;-36
2023/07/07 05:56:21;;;;;;;4.45;3.35;;;18.60;98.40;;;18.58;66.95;97557.59;5029753;28;20445;-36
2023/07/07 05:58:47;;;;;;;5.53;3.60;;;18.50;98.60;;;18.58;65.43;97557.59;5016976;28;20510;-36
2023/07/07 06:01:13;;;;;;;4.55;3.17;;;18.60;98.20;;;18.61;66.48;97565.38;5026991;28;20118;-36
2023/07/07 06:03:40;;;;;;;8.13;4.00;;;18.60;98.40;;;18.66;66.30;97564.16;5028097;28;20020;-36
2023/07/07 06:06:07;;;;;;;5.95;3.50;;;18.70;98.30;;;18.73;66.72;97555.72;5023102;28;20388;-36
2023/07/07 06:08:32;;;;;;;7.88;3.40;;;18.70;98.30;;;18.82;66.05;97561.31;5029515;28;20037;-36
2023/07/07 06:10:59;;;;;;;6.28;3.60;;;18.80;98.20;;;18.95;65.09;97560.47;5010337;28;20049;-36
2023/07/07 06:13:25;;;;;;;4.35;3.30;;;18.90;97.90;;;19.07;64.73;97563.16;5028096;28;20036;-36
2023/07/07 06:15:51;;;;;;;4.65;3.15;;;19.00;97.80;;;19.16;62.10;97571.50;5027031;28;20094;-36
2023/07/07 06:18:18;;;;;;;5.35;3.60;;;19.10;97.00;;;19.24;61.37;97559.31;5030753;28;20064;-36
2023/07/07 06:20:52;;;;;;;7.07;3.30;;;19.20;96.70;;;19.33;61.50;97562.34;5029385;28;20063;-36
2023/07/07 06:23:18;;;;;;;4.93;3.30;;;19.30;96.80;;;19.41;61.49;97562.63;5025710;28;20033;-36
2023/07/07 06:25:44;;;;;;;6.35;3.40;;;19.40;96.70;;;19.55;62.21;97578.56;5029334;28;20344;-36
2023/07/07 06:28:09;;;;;;;5.15;3.38;;;19.50;96.80;;;19.60;61.83;97579.09;5030718;28;20494;-36
2023/07/07 06:30:35;;;;;;;4.72;2.92;;;19.60;96.70;;;19.73;60.41;97578.22;5031416;28;20457;-36
2023/07/07 06:33:02;;;;;;;5.97;3.33;;;19.70;96.30;;;19.85;58.50;97580.06;5021646;28;20523;-36
2023/07/07 06:35:29;;;;;;;5.38;3.22;;;19.80;95.80;;;20.00;58.64;97583.44;5026458;28;20498;-36
2023/07/07 06:37:54;;;;;;;6.32;3.05;;;19.90;95.70;;;20.12;57.49;97579.88;5028810;28;20033;-36
2023/07/07 06:40:20;;;;;;;4.80;3.05;;;20.00;95.30;;;20.06;56.56;97547.34;5031357;28;20694;-36
2023/07/07 06:42:48;;;;;;;5.93;3.17;;;20.10;94.90;;;20.32;56.13;97573.06;5033827;28;20028;-36
2023/07/07 06:45:13;;;;;;;5.40;3.00;;;20.30;94.80;;;20.52;54.99;97581.44;5032684;28;20399;-36
2023/07/07 06:47:39;;;;;;;7.05;3.25;;;20.40;94.40;;;20.65;53.54;97582.25;5032811;28;20041;-36
2023/07/07 06:50:06;;;;;;;4.60;3.25;;;20.50;93.90;;;20.77;55.48;97589.38;5033261;28;20394;-36
2023/07/07 06:52:31;;;;;;;6.75;4.15;;;20.60;94.50;;;20.94;53.57;97592.59;5029845;28;20021;-36
2023/07/07 06:54:57;;;;;;;4.15;3.00;;;20.80;93.70;;;21.09;52.57;97578.03;5026528;28;20105;-36
2023/07/07 06:57:23;;;;;;;6.15;3.70;;;21.00;93.40;;;21.27;52.40;97593.69;5022624;28;21759;-36
2023/07/07 06:59:49;;;;;;;6.95;3.08;;;21.10;93.30;;;21.38;51.47;97596.38;5027670;28;20031;-36
2023/07/07 07:02:14;;;;;;;5.45;3.20;;;21.20;92.70;;;21.56;51.68;97599.47;5028072;28;20033;-36
2023/07/07 07:04:40;;;;;;;6.75;3.47;;;21.30;92.90;;;21.71;51.75;97595.59;5031710;28;20238;-36
2023/07/07 07:07:09;;;;;;;5.00;3.65;;;21.50;92.60;;;21.86;50.53;97604.25;5019776;28;20041;-36
2023/07/07 07:09:34;;;;;;;6.10;3.72;;;21.60;92.40;;;21.92;49.30;97589.47;5033157;28;20154;-36
2023/07/07 07:12:00;;;;;;;4.55;2.83;;;21.80;91.90;;;22.06;49.88;97599.97;5031644;28;20033;-36
2023/07/07 07:14:26;;;;;;;4.03;3.05;;;21.90;91.60;;;22.11;49.18;97600.44;5022243;28;20064;-38
2023/07/07 07:16:52;;;;;;;5.13;3.33;;;22.00;91.40;;;22.27;48.92;97604.59;5018686;28;20036;-39
2023/07/07 07:19:17;;;;;;;7.18;3.95;;;22.10;91.10;;;22.35;47.80;97604.00;5014314;28;20035;-37
2023/07/07 07:21:43;;;;;;;7.03;4.28;;;22.20;90.60;;;22.39;49.52;97597.38;5021029;28;20029;-38
2023/07/07 07:24:09;;;;;;;7.80;4.28;;;22.30;91.20;;;22.41;47.46;97592.72;5034713;28;20044;-38
2023/07/07 07:26:34;;;;;;;7.07;3.70;;;22.40;90.50;;;22.62;47.48;97617.84;5026225;28;20496;-37
2023/07/07 07:29:00;;;;;;;5.55;3.55;;;22.40;89.70;;;22.75;47.43;97608.75;5028272;28;20044;-38
2023/07/07 07:31:26;;;;;;;6.68;3.90;;;22.50;89.80;;;22.84;46.36;97608.84;5023939;28;20029;-38
2023/07/07 07:33:54;;;;;;;4.75;3.40;;;22.60;88.80;;;22.89;46.50;97605.75;5028479;28;20057;-38
2023/07/07 07:36:21;;;;;;;5.00;3.13;;;22.70;88.70;;;23.09;46.97;97614.03;5027735;28;20039;-38
2023/07/07 07:38:47;;;;;;;6.40;3.88;;;22.80;89.00;;;23.10;46.17;97599.59;5051820;22;20047;-36
2023/07/07 07:41:13;;;;;;;8.32;3.95;;;23.00;89.20;;;23.14;45.21;97587.59;5043106;28;20124;-36
2023/07/07 07:43:39;;;;;;;5.90;3.50;;;23.10;86.90;;;23.27;46.97;97592.78;5053582;28;20508;-36
2023/07/07 07:46:05;;;;;;;9.27;3.70;;;23.10;88.90;;;23.46;45.97;97610.88;5040349;28;20074;-36
2023/07/07 07:48:30;;;;;;;6.70;3.92;;;23.30;87.30;;;23.49;45.86;97602.53;5042632;28;20036;-36
2023/07/07 07:50:56;;;;;;;5.03;3.60;;;23.40;86.90;;;23.60;45.38;97603.31;5050435;28;20555;-36
2023/07/07 07:53:22;;;;;;;7.93;3.88;;;23.50;85.90;;;23.67;45.44;97594.69;5046271;28;20115;-36
2023/07/07 07:55:48;;;;;;;5.22;3.67;;;23.50;86.30;;;23.78;45.24;97595.47;5053619;28;20073;-36
2023/07/07 07:58:13;;;;;;;9.90;4.18;;;23.60;85.30;;;23.81;43.97;97599.75;5044654;28;20394;-36
2023/07/07 08:00:39;;;;;;;8.32;4.03;;;23.70;84.10;;;23.86;44.36;97599.34;5043401;28;20047;-36
2023/07/07 08:03:05;;;;;;;7.88;3.88;;;23.70;84.10;;;23.90;44.32;97598.94;5048453;28;20032;-36
2023/07/07 08:05:31;;;;;;;6.18;3.83;;;23.70;84.10;;;23.99;44.64;97602.66;5046792;28;20032;-36
2023/07/07 08:07:58;;;;;;;5.50;3.83;;;23.80;84.30;;;24.04;44.42;97589.63;5051747;28;20024;-36
2023/07/07 08:10:23;;;;;;;6.30;3.88;;;23.90;85.10;;;24.10;44.05;97597.19;5048159;28;20520;-36
2023/07/07 08:12:49;;;;;;;6.50;3.70;;;24.00;84.00;;;24.27;44.66;97602.91;5050655;28;20036;-36
2023/07/07 08:15:15;;;;;;;5.78;3.95;;;24.10;83.60;;;24.38;44.57;97606.31;5040009;28;20390;-36
2023/07/07 08:17:40;;;;;;;5.55;3.72;;;24.20;83.80;;;24.46;43.80;97599.38;5049870;28;20111;-36
2023/07/07 08:20:17;;;;;;;5.22;3.63;;;24.30;83.10;;;24.49;43.42;97602.66;5045415;28;20036;-36
2023/07/07 08:22:42;;;;;;;6.18;4.03;;;24.30;82.10;;;24.57;43.53;97600.16;5049851;28;20035;-36
2023/07/07 08:25:09;;;;;;;6.50;3.88;;;24.40;82.30;;;24.70;43.39;97605.28;5043065;28;20048;-36
2023/07/07 08:27:35;;;;;;;7.90;3.83;;;24.50;82.40;;;24.80;43.48;97601.72;5051064;28;20025;-36
2023/07/07 08:30:01;;;;;;;6.32;3.90;;;24.60;81.80;;;24.84;43.14;97601.31;5050968;28;20471;-36
2023/07/07 08:32:26;;;;;;;8.63;4.25;;;24.70;81.50;;;24.94;43.36;97607.56;5043318;28;20386;-36
2023/07/07 08:34:54;;;;;;;5.00;3.90;;;24.80;81.90;;;24.99;42.75;97600.91;5030465;28;20463;-36
2023/07/07 08:37:24;;;;;;;6.20;4.00;;;24.80;80.80;;;25.05;42.87;97598.50;5041885;28;20121;-36
2023/07/07 08:39:50;;;;;;;5.80;3.92;;;24.90;80.80;;;25.19;42.97;97607.13;5043287;28;20029;-36
2023/07/07 08:42:29;;;;;;;5.40;4.20;;;25.00;81.40;;;25.29;42.25;97606.16;5053211;28;20028;-36
2023/07/07 08:45:00;;;;;;;6.75;4.03;;;25.10;79.60;;;25.29;41.17;97581.84;5044477;28;20051;-36
2023/07/07 08:47:38;;;;;;;7.00;4.50;;;25.20;78.50;;;25.50;41.61;97599.69;5048577;28;20028;-36
2023/07/07 08:50:45;;;;;;;6.20;4.18;;;25.30;78.90;;;25.57;41.02;97594.59;5041901;28;20028;-36
2023/07/07 08:53:33;;;;;;;6.07;4.18;;;25.40;77.70;;;25.72;41.12;97607.47;5040688;28;20097;-36
2023/07/07 08:56:26;;;;;;;5.53;4.00;;;25.50;78.00;;;25.85;40.58;97606.28;5041599;28;20033;-36
2023/07/07 08:59:30;;;;;;;7.00;4.40;;;25.60;78.30;;;25.91;39.99;97595.75;5044506;28;20037;-36
2023/07/07 09:02:07;;;;;;;6.93;4.57;;;25.80;76.40;;;25.95;41.73;97596.34;5046595;28;20432;-36
2023/07/07 09:04:54;;;;;;;6.18;4.25;;;25.80;75.70;;;26.08;40.52;97607.66;5047843;28;20057;-36
2023/07/07 09:07:56;;;;;;;10.48;5.00;;;25.90;76.50;;;26.09;39.98;97590.44;5040249;28;23446;-36
2023/07/07 09:11:01;;;;;;;7.30;5.18;;;25.90;75.30;;;26.16;40.58;97595.25;5050474;28;20032;-36
2023/07/07 09:13:29;;;;;;;6.93;4.57;;;26.00;76.10;;;26.20;40.01;97584.00;5027501;28;20037;-36
2023/07/07 09:16:18;;;;;;;9.70;4.60;;;26.00;76.80;;;26.26;40.44;97599.59;5047701;28;20406;-36
2023/07/07 09:19:07;;;;;;;6.32;4.20;;;26.00;75.60;;;26.33;39.78;97593.59;5044720;28;20113;-36
2023/07/07 09:21:43;;;;;;;7.45;4.90;;;26.10;75.10;;;26.38;39.70;97589.44;5051811;28;20024;-36
2023/07/07 09:24:32;;;;;;;6.60;4.40;;;26.20;74.60;;;26.48;39.77;97590.19;5063158;28;20736;-36
2023/07/07 09:27:15;;;;;;;10.95;5.40;;;26.30;74.20;;;26.69;36.49;97583.69;5041894;28;20051;-36
2023/07/07 09:29:41;;;;;;;6.80;5.13;;;26.40;71.20;;;26.76;34.83;97582.06;5045648;28;20462;-36
2023/07/07 09:32:11;;;;;;;5.93;4.53;;;26.60;66.30;;;26.89;34.99;97584.41;5045831;28;20037;-36
2023/07/07 09:34:37;;;;;;;5.38;4.47;;;26.70;67.40;;;26.95;34.68;97574.78;5054532;28;20036;-36
2023/07/07 09:37:33;;;;;;;7.88;5.20;;;26.70;65.80;;;26.99;34.59;97568.94;5048807;28;20037;-36
2023/07/07 09:40:18;;;;;;;10.27;5.65;;;26.80;66.40;;;27.03;33.48;97577.59;5052567;28;20469;-36
2023/07/07 09:43:13;;;;;;;7.82;5.30;;;26.90;63.00;;;26.88;33.68;97566.44;5048173;28;20032;-36
2023/07/07 09:46:10;;;;;;;7.10;4.57;;;26.80;62.50;;;26.94;33.89;97571.25;5047848;28;20382;-37
2023/07/07 09:49:01;;;;;;;7.45;5.13;;;26.80;63.10;;;26.96;32.44;97566.53;5049256;28;20052;-37
2023/07/07 09:51:56;;;;;;;7.28;4.95;;;26.80;62.20;;;26.95;33.29;97539.63;5045801;28;20035;-37
2023/07/07 09:54:23;;;;;;;9.05;5.38;;;26.90;62.00;;;27.11;33.76;97564.09;5045101;28;20491;-37
2023/07/07 09:57:13;;;;;;;6.68;4.80;;;27.00;62.70;;;27.28;33.34;97573.25;5052520;28;20060;-37
2023/07/07 09:59:45;;;;;;;7.15;5.10;;;27.00;61.20;;;27.39;32.48;97567.56;5047742;28;20032;-37
2023/07/07 10:02:21;;;;;;;8.57;5.38;;;27.20;60.70;;;27.37;32.35;97564.19;5041480;28;20089;-37
2023/07/07 10:04:54;;;;;;;8.18;5.60;;;27.20;59.70;;;27.36;32.84;97558.91;5047780;28;20594;-37
2023/07/07 10:07:21;;;;;;;7.05;5.03;;;27.20;61.10;;;27.34;32.20;97567.19;5040264;28;20029;-37
2023/07/07 10:09:46;;;;;;;10.15;5.88;;;27.20;59.80;;;27.32;31.95;97561.09;5056094;28;20444;-37
2023/07/07 10:12:17;;;;;;;8.27;5.57;;;27.20;59.70;;;27.38;33.43;97565.84;5045391;28;20032;-37
2023/07/07 10:14:43;;;;;;;8.18;5.68;;;27.20;60.90;;;27.43;32.07;97560.81;5051336;28;20079;-37
2023/07/07 10:17:09;;;;;;;10.23;6.07;;;27.30;58.90;;;27.47;31.40;97560.50;5047287;28;20032;-37
2023/07/07 10:19:52;;;;;;;6.18;5.25;;;27.30;58.00;;;27.55;32.42;97555.16;5050820;28;20037;-37
2023/07/07 10:22:19;;;;;;;8.20;5.43;;;27.30;59.00;;;27.67;31.60;97548.41;5049800;28;20409;-37
2023/07/07 10:24:45;;;;;;;13.38;6.65;;;27.50;59.00;;;27.71;31.93;97548.94;5053480;28;20048;-37
2023/07/07 10:27:15;;;;;;;9.27;6.40;;;27.50;58.90;;;27.66;32.54;97548.63;5044274;28;20028;-37
2023/07/07 10:29:43;;;;;;;8.98;6.13;;;27.50;59.90;;;27.50;32.56;97538.53;5045480;28;20028;-34
2023/07/07 10:32:15;;;;;;;9.38;5.40;;;27.40;58.90;;;27.50;31.37;97549.38;5037233;28;20028;-34